createdAt,value
2022-11-12T00:00:17.402Z,12.55
2022-11-12T00:03:38.610Z,12.47
2022-11-12T00:06:59.606Z,12.29
2022-11-12T00:10:21.538Z,12.33
2022-11-12T00:13:42.848Z,12.32
2022-11-12T00:17:04.536Z,12.57
2022-11-12T00:20:25.753Z,12.35
2022-11-12T00:23:46.577Z,12.47
2022-11-12T00:27:07.919Z,12.66
2022-11-12T00:30:30.689Z,12.39
2022-11-12T00:33:52.998Z,12.26
2022-11-12T00:37:14.041Z,12.48
2022-11-12T00:40:35.406Z,12.48
2022-11-12T00:43:56.469Z,12.29
2022-11-12T00:47:17.686Z,12.41
2022-11-12T00:50:38.933Z,12.34
2022-11-12T00:53:59.961Z,12.24
2022-11-12T00:57:22.677Z,12.27
2022-11-12T01:00:45.214Z,12.20
2022-11-12T01:04:06.094Z,12.22
2022-11-12T01:07:29.220Z,12.32
2022-11-12T01:10:50.651Z,12.20
2022-11-12T01:14:12.905Z,12.35
2022-11-12T01:17:35.035Z,12.24
2022-11-12T01:20:57.559Z,12.27
2022-11-12T01:24:21.152Z,12.26
2022-11-12T01:27:43.006Z,12.31
2022-11-12T01:31:26.667Z,12.37
2022-11-12T01:34:48.452Z,12.18
2022-11-12T01:38:09.937Z,12.32
2022-11-12T01:41:33.482Z,12.38
2022-11-12T01:44:54.626Z,12.32
2022-11-12T01:48:34.029Z,12.03
2022-11-12T01:52:00.393Z,12.34
2022-11-12T01:55:25.673Z,12.27
2022-11-12T01:58:48.003Z,12.26
2022-11-12T02:02:09.313Z,12.21
2022-11-12T02:05:31.114Z,12.11
2022-11-12T02:08:52.534Z,12.04
2022-11-12T02:12:33.471Z,12.02
2022-11-12T02:15:54.373Z,11.93
2022-11-12T02:19:16.506Z,11.96
2022-11-12T02:22:38.114Z,11.78
2022-11-12T02:26:02.542Z,11.90
2022-11-12T02:29:23.865Z,11.93
2022-11-12T02:32:45.155Z,11.94
2022-11-12T02:36:06.981Z,11.78
2022-11-12T02:39:28.134Z,11.83
2022-11-12T02:42:49.368Z,12.01
2022-11-12T02:46:12.123Z,11.91
2022-11-12T02:49:33.113Z,12.06
2022-11-12T02:52:54.266Z,11.97
2022-11-12T02:56:15.784Z,11.93
2022-11-12T02:59:37.541Z,12.00
2022-11-12T03:02:59.904Z,12.00
2022-11-12T03:06:21.016Z,11.93
2022-11-12T03:09:42.021Z,11.89
2022-11-12T03:13:02.979Z,11.99
2022-11-12T03:16:24.010Z,11.83
2022-11-12T03:19:45.586Z,11.85
2022-11-12T03:23:10.473Z,11.96
2022-11-12T03:26:35.727Z,11.95
2022-11-12T03:30:00.294Z,12.10
2022-11-12T03:33:22.334Z,11.68
2022-11-12T03:36:45.397Z,11.89
2022-11-12T03:40:07.635Z,11.93
2022-11-12T03:43:28.576Z,11.94
2022-11-12T03:46:49.796Z,11.85
2022-11-12T03:50:12.046Z,11.82
2022-11-12T03:53:33.024Z,11.93
2022-11-12T03:56:55.158Z,11.96
2022-11-12T04:00:17.385Z,11.98
2022-11-12T04:03:38.654Z,11.77
2022-11-12T04:07:19.018Z,11.90
2022-11-12T04:10:40.362Z,11.91
2022-11-12T04:14:01.712Z,11.87
2022-11-12T04:17:52.302Z,12.04
2022-11-12T04:21:34.268Z,11.92
2022-11-12T04:25:14.605Z,11.80
2022-11-12T04:28:36.154Z,11.91
2022-11-12T04:31:57.334Z,11.98
2022-11-12T04:35:20.052Z,11.99
2022-11-12T04:38:41.119Z,12.03
2022-11-12T04:42:20.909Z,11.91
2022-11-12T04:45:43.360Z,11.69
2022-11-12T04:49:05.732Z,11.88
2022-11-12T04:52:28.186Z,11.84
2022-11-12T04:55:53.527Z,11.88
2022-11-12T04:59:14.717Z,11.99
2022-11-12T05:02:36.164Z,12.05
2022-11-12T05:06:27.252Z,11.94
2022-11-12T05:09:48.492Z,11.95
2022-11-12T05:13:10.188Z,11.99
2022-11-12T05:16:30.889Z,12.07
2022-11-12T05:19:52.637Z,12.22
2022-11-12T05:23:14.274Z,12.19
2022-11-12T05:26:35.325Z,11.94
2022-11-12T05:29:58.223Z,12.11
2022-11-12T05:33:22.772Z,12.07
2022-11-12T05:36:44.451Z,12.20
2022-11-12T05:40:05.716Z,12.13
2022-11-12T05:43:26.989Z,12.17
2022-11-12T05:46:51.065Z,12.17
2022-11-12T05:50:13.182Z,12.19
2022-11-12T05:53:34.318Z,12.20
2022-11-12T05:56:55.439Z,12.16
2022-11-12T06:00:20.733Z,12.20
2022-11-12T06:03:45.871Z,12.02
2022-11-12T06:07:08.686Z,12.06
2022-11-12T06:10:29.950Z,12.17
2022-11-12T06:13:50.864Z,12.37
2022-11-12T06:17:12.765Z,12.39
2022-11-12T06:20:34.524Z,12.42
2022-11-12T06:23:58.632Z,12.46
2022-11-12T06:27:20.568Z,12.31
2022-11-12T06:30:41.748Z,12.40
2022-11-12T06:34:03.620Z,12.41
2022-11-12T06:37:24.585Z,12.42
2022-11-12T06:40:45.413Z,12.44
2022-11-12T06:44:09.039Z,12.43
2022-11-12T06:47:30.475Z,12.35
2022-11-12T06:50:52.944Z,12.37
2022-11-12T06:54:23.793Z,12.29
2022-11-12T06:57:45.297Z,12.20
2022-11-12T07:01:12.553Z,12.38
2022-11-12T07:04:34.525Z,12.33
2022-11-12T07:08:00.880Z,12.32
2022-11-12T07:11:22.693Z,12.58
2022-11-12T07:14:43.803Z,12.56
2022-11-12T07:18:05.243Z,12.35
2022-11-12T07:21:26.934Z,12.27
2022-11-12T07:24:47.924Z,12.48
2022-11-12T07:28:11.210Z,12.47
2022-11-12T07:31:32.225Z,12.53
2022-11-12T07:34:53.400Z,12.54
2022-11-12T07:38:15.501Z,12.46
2022-11-12T07:41:36.509Z,12.44
2022-11-12T07:44:58.117Z,12.71
2022-11-12T07:48:19.320Z,12.82
2022-11-12T07:51:40.746Z,12.66
2022-11-12T07:55:02.399Z,12.81
2022-11-12T07:58:25.165Z,12.69
2022-11-12T08:01:46.565Z,12.66
2022-11-12T08:05:14.478Z,12.87
2022-11-12T08:08:39.079Z,12.91
2022-11-12T08:12:00.735Z,13.03
2022-11-12T08:15:23.260Z,12.79
2022-11-12T08:18:46.137Z,12.60
2022-11-12T08:22:07.117Z,12.75
2022-11-12T08:25:28.644Z,13.04
2022-11-12T08:28:50.016Z,12.91
2022-11-12T08:32:11.519Z,12.85
2022-11-12T08:35:33.361Z,12.79
2022-11-12T08:38:54.790Z,12.92
2022-11-12T08:42:16.389Z,12.99
2022-11-12T08:45:42.525Z,12.89
2022-11-12T08:49:03.364Z,13.25
2022-11-12T08:52:24.874Z,13.06
2022-11-12T08:55:46.888Z,13.21
2022-11-12T08:59:08.551Z,13.15
2022-11-12T09:02:29.887Z,13.00
2022-11-12T09:05:52.111Z,12.98
2022-11-12T09:09:13.636Z,13.04
2022-11-12T09:12:36.704Z,13.32
2022-11-12T09:16:02.481Z,13.34
2022-11-12T09:19:23.883Z,13.12
2022-11-12T09:22:46.027Z,13.18
2022-11-12T09:26:08.406Z,13.35
2022-11-12T09:29:30.018Z,13.52
2022-11-12T09:32:51.564Z,13.44
2022-11-12T09:36:12.602Z,13.51
2022-11-12T09:39:34.033Z,13.66
2022-11-12T09:42:56.168Z,13.55
2022-11-12T09:46:29.553Z,13.31
2022-11-12T09:49:58.612Z,13.34
2022-11-12T09:53:21.637Z,13.32
2022-11-12T09:56:42.694Z,13.30
2022-11-12T10:00:04.352Z,13.43
2022-11-12T10:03:35.242Z,13.54
2022-11-12T10:07:14.285Z,13.59
2022-11-12T10:10:45.942Z,13.58
2022-11-12T10:14:38.416Z,13.80
2022-11-12T10:18:05.463Z,14.10
2022-11-12T10:21:45.437Z,13.79
2022-11-12T10:25:17.994Z,13.84
2022-11-12T10:29:10.370Z,14.04
2022-11-12T10:32:32.695Z,13.97
2022-11-12T10:35:54.598Z,13.97
2022-11-12T10:39:35.108Z,14.14
2022-11-12T10:43:05.554Z,14.33
2022-11-12T10:46:32.830Z,14.15
2022-11-12T10:50:06.400Z,14.21
2022-11-12T10:53:38.852Z,14.42
2022-11-12T10:57:20.594Z,14.34
2022-11-12T11:00:55.065Z,14.30
2022-11-12T11:04:36.228Z,14.54
2022-11-12T11:07:58.086Z,14.52
2022-11-12T11:11:28.647Z,14.59
2022-11-12T11:15:19.588Z,14.68
2022-11-12T11:18:42.967Z,14.55
2022-11-12T11:22:25.469Z,14.51
2022-11-12T11:25:48.854Z,14.79
2022-11-12T11:29:43.462Z,14.61
2022-11-12T11:33:22.234Z,14.73
2022-11-12T11:36:59.379Z,14.99
2022-11-12T11:40:26.411Z,15.00
2022-11-12T11:44:12.696Z,14.57
2022-11-12T11:48:00.622Z,14.63
2022-11-12T11:51:34.964Z,14.68
2022-11-12T11:55:34.489Z,14.64
2022-11-12T11:59:33.269Z,14.62
2022-11-12T12:03:19.892Z,14.39
2022-11-12T12:07:07.902Z,14.49
2022-11-12T12:11:08.320Z,14.23
2022-11-12T12:14:49.019Z,14.32
2022-11-12T12:18:29.078Z,14.24
2022-11-12T12:21:51.901Z,14.16
2022-11-12T12:25:29.276Z,14.17
2022-11-12T12:29:03.089Z,14.07
2022-11-12T12:32:36.609Z,14.11
2022-11-12T12:36:04.345Z,14.08
2022-11-12T12:39:28.051Z,14.16
2022-11-12T12:43:20.927Z,14.31
2022-11-12T12:46:54.707Z,14.25
2022-11-12T12:50:16.714Z,14.16
2022-11-12T12:53:38.011Z,14.00
2022-11-12T12:56:59.647Z,14.04
2022-11-12T13:00:40.581Z,14.08
2022-11-12T13:04:04.510Z,14.26
2022-11-12T13:07:48.691Z,14.32
2022-11-12T13:11:10.341Z,14.19
2022-11-12T13:14:36.900Z,14.05
2022-11-12T13:17:58.200Z,14.10
2022-11-12T13:21:21.410Z,14.03
2022-11-12T13:25:05.863Z,14.05
2022-11-12T13:28:27.489Z,14.06
2022-11-12T13:31:48.756Z,14.06
2022-11-12T13:35:12.974Z,14.06
2022-11-12T13:38:38.397Z,14.15
2022-11-12T13:42:18.820Z,14.27
2022-11-12T13:45:50.705Z,14.07
2022-11-12T13:49:15.101Z,14.15
2022-11-12T13:52:36.242Z,14.30
2022-11-12T13:55:57.554Z,14.25
2022-11-12T13:59:23.198Z,14.18
2022-11-12T14:02:46.676Z,14.29
2022-11-12T14:06:16.264Z,14.17
2022-11-12T14:10:08.304Z,14.18
2022-11-12T14:13:42.543Z,14.18
2022-11-12T14:17:22.395Z,14.22
2022-11-12T14:20:43.851Z,14.24
2022-11-12T14:24:05.830Z,14.20
2022-11-12T14:27:29.746Z,14.11
2022-11-12T14:30:51.145Z,14.30
2022-11-12T14:34:32.907Z,14.29
2022-11-12T14:38:15.210Z,14.22
2022-11-12T14:41:39.306Z,14.14
2022-11-12T14:45:00.216Z,14.13
2022-11-12T14:48:21.849Z,14.15
2022-11-12T14:51:48.666Z,14.02
2022-11-12T14:55:24.313Z,14.03
2022-11-12T14:58:46.205Z,14.05
2022-11-12T15:02:42.632Z,14.17
2022-11-12T15:06:09.273Z,14.08
2022-11-12T15:09:36.655Z,14.10
2022-11-12T15:13:13.757Z,14.06
2022-11-12T15:16:36.123Z,14.04
2022-11-12T15:20:21.597Z,14.08
2022-11-12T15:24:10.041Z,13.98
2022-11-12T15:27:41.231Z,14.05
2022-11-12T15:31:04.074Z,13.90
2022-11-12T15:34:25.097Z,14.06
2022-11-12T15:37:47.123Z,14.03
2022-11-12T15:41:22.061Z,13.94
2022-11-12T15:44:43.868Z,13.89
2022-11-12T15:48:04.977Z,14.08
2022-11-12T15:51:25.968Z,14.13
2022-11-12T15:54:47.338Z,13.81
2022-11-12T15:58:14.847Z,14.10
2022-11-12T16:01:37.726Z,14.11
2022-11-12T16:04:58.686Z,13.97
2022-11-12T16:08:21.102Z,13.95
2022-11-12T16:11:42.457Z,14.06
2022-11-12T16:15:04.479Z,14.02
2022-11-12T16:18:25.904Z,13.86
2022-11-12T16:21:47.067Z,13.91
2022-11-12T16:25:08.150Z,13.86
2022-11-12T16:28:31.432Z,13.78
2022-11-12T16:31:56.016Z,13.88
2022-11-12T16:35:23.156Z,13.68
2022-11-12T16:38:44.552Z,13.84
2022-11-12T16:42:05.680Z,13.89
2022-11-12T16:45:35.325Z,13.87
2022-11-12T16:48:56.863Z,14.01
2022-11-12T16:52:21.159Z,13.91
2022-11-12T16:55:42.240Z,13.87
2022-11-12T16:59:03.464Z,13.88
2022-11-12T17:02:24.526Z,13.81
2022-11-12T17:05:45.367Z,13.79
2022-11-12T17:09:08.441Z,13.77
2022-11-12T17:12:29.691Z,13.83
2022-11-12T17:15:58.476Z,13.74
2022-11-12T17:19:19.385Z,13.60
2022-11-12T17:22:42.239Z,13.75
2022-11-12T17:26:06.068Z,13.73
2022-11-12T17:29:27.607Z,13.77
2022-11-12T17:32:49.177Z,13.57
2022-11-12T17:36:12.906Z,13.57
2022-11-12T17:39:34.780Z,13.74
2022-11-12T17:42:56.180Z,13.73
2022-11-12T17:46:18.886Z,13.80
2022-11-12T17:49:41.227Z,13.57
2022-11-12T17:53:02.481Z,13.62
2022-11-12T17:56:25.439Z,13.66
2022-11-12T17:59:46.618Z,13.82
2022-11-12T18:03:07.611Z,13.76
2022-11-12T18:06:32.064Z,13.57
2022-11-12T18:09:53.581Z,13.73
2022-11-12T18:13:16.061Z,13.78
2022-11-12T18:16:37.910Z,13.59
2022-11-12T18:19:59.633Z,13.50
2022-11-12T18:23:20.976Z,13.50
2022-11-12T18:26:42.322Z,13.74
2022-11-12T18:30:04.458Z,13.75
2022-11-12T18:33:26.253Z,13.66
2022-11-12T18:36:50.703Z,13.77
2022-11-12T18:40:12.408Z,13.72
2022-11-12T18:43:33.991Z,13.62
2022-11-12T18:46:55.191Z,13.60
2022-11-12T18:50:16.640Z,13.52
2022-11-12T18:53:38.966Z,13.50
2022-11-12T18:56:59.945Z,13.44
2022-11-12T19:00:21.483Z,13.45
2022-11-12T19:03:42.984Z,13.35
2022-11-12T19:07:04.038Z,13.51
2022-11-12T19:10:25.125Z,13.47
2022-11-12T19:13:50.507Z,13.43
2022-11-12T19:17:11.697Z,13.56
2022-11-12T19:20:33.801Z,13.43
2022-11-12T19:23:56.507Z,13.43
2022-11-12T19:27:18.106Z,13.53
2022-11-12T19:30:40.014Z,13.56
2022-11-12T19:34:01.938Z,13.48
2022-11-12T19:37:33.538Z,13.47
2022-11-12T19:40:55.418Z,13.48
2022-11-12T19:44:16.881Z,13.42
2022-11-12T19:47:37.828Z,13.54
2022-11-12T19:51:06.847Z,13.62
2022-11-12T19:54:27.783Z,13.53
2022-11-12T19:57:48.965Z,13.50
2022-11-12T20:01:13.927Z,13.46
2022-11-12T20:04:35.894Z,13.42
2022-11-12T20:07:57.040Z,13.37
2022-11-12T20:11:19.335Z,13.31
2022-11-12T20:14:40.920Z,13.27
2022-11-12T20:18:03.361Z,13.34
2022-11-12T20:21:25.164Z,13.43
2022-11-12T20:24:46.994Z,13.56
2022-11-12T20:28:08.857Z,13.58
2022-11-12T20:31:32.064Z,13.68
2022-11-12T20:34:56.128Z,13.51
2022-11-12T20:38:17.448Z,13.57
2022-11-12T20:41:39.587Z,13.31
2022-11-12T20:45:01.681Z,13.29
2022-11-12T20:48:22.761Z,13.33
2022-11-12T20:51:43.965Z,13.35
2022-11-12T20:55:06.202Z,13.26
2022-11-12T20:58:29.987Z,13.58
2022-11-12T21:01:52.513Z,13.37
2022-11-12T21:05:14.969Z,13.30
2022-11-12T21:08:36.049Z,13.50
2022-11-12T21:11:58.362Z,13.40
2022-11-12T21:15:19.569Z,13.45
2022-11-12T21:18:41.434Z,13.49
2022-11-12T21:22:02.874Z,13.55
2022-11-12T21:25:24.265Z,13.51
2022-11-12T21:28:46.671Z,13.35
2022-11-12T21:32:08.078Z,13.28
2022-11-12T21:35:29.071Z,13.19
2022-11-12T21:39:01.028Z,13.57
2022-11-12T21:42:22.155Z,13.69
2022-11-12T21:45:47.492Z,13.51
2022-11-12T21:49:09.207Z,13.46
2022-11-12T21:52:33.723Z,13.45
2022-11-12T21:55:54.449Z,13.50
2022-11-12T21:59:17.103Z,13.45
2022-11-12T22:02:38.145Z,13.55
2022-11-12T22:06:00.529Z,13.55
2022-11-12T22:09:21.910Z,13.55
2022-11-12T22:12:58.676Z,13.45
2022-11-12T22:16:25.645Z,13.39
2022-11-12T22:19:46.890Z,13.37
2022-11-12T22:23:08.433Z,13.39
2022-11-12T22:26:33.758Z,13.35
2022-11-12T22:29:56.244Z,13.42
2022-11-12T22:33:18.112Z,13.39
2022-11-12T22:36:40.402Z,13.20
2022-11-12T22:40:06.923Z,13.27
2022-11-12T22:43:33.299Z,13.35
2022-11-12T22:46:54.117Z,13.33
2022-11-12T22:50:16.198Z,13.37
2022-11-12T22:53:37.484Z,13.44
2022-11-12T22:56:58.704Z,13.27
2022-11-12T23:00:31.250Z,13.19
2022-11-12T23:03:56.807Z,13.40
2022-11-12T23:07:18.505Z,13.33
2022-11-12T23:10:45.481Z,13.48
2022-11-12T23:14:07.255Z,13.44
2022-11-12T23:17:28.899Z,13.49
2022-11-12T23:20:50.201Z,13.35
2022-11-12T23:24:12.109Z,13.46
2022-11-12T23:27:33.179Z,13.42
2022-11-12T23:30:54.349Z,13.51
2022-11-12T23:34:16.014Z,13.59
2022-11-12T23:37:37.092Z,13.46
2022-11-12T23:40:58.159Z,13.50
2022-11-12T23:44:19.853Z,13.44
2022-11-12T23:47:41.394Z,13.47
2022-11-12T23:51:13.933Z,13.43
2022-11-12T23:54:35.443Z,13.64
2022-11-12T23:57:57.305Z,13.62
